Detall de PIREP

Printer-friendly versionPDF version

[2015/11/03 09:11:00]
Flight IATA:CT3409
Pilot Number:011
Company ICAO:CAT
Aircraft Type:B738/F
PAX:160
Departing Airport: LSGG
Destination Airport: LEBL
Alternate Airport:LEPA
Online: VATSIM
Route:BALSI UN852 DIVKO UN975 BISBA
Flight Level:F310
No Slew and time accel
No pause
Crash detect
Detect pilot in Cockpit between each 30 and 45 minutes
09:11 Zero fuel Weight: 135990 Lbs, Fuel Weight: 14669 Lbs
09:11 VATSIM:LSGG 030850Z 06003KT 030V110 4500 BR FEW005 OVC007 08/06 Q1022 NOSIG
09:11 VATSIM:LEBL 030900Z 29003KT 220V340 5000 R07R/1400N BR FEW015 17/16 Q1020 NOSIG
09:12 Parking Brakes off
09:27 Take-off
09:27 Take off Weight: 149372 Lbs
09:27 Wind: 018º @ 003 Knots Heading: 226º
09:27 POS N46º 14´ 18´´ E006º 06´ 34´´
09:27 Gear Up: 169 Knots
09:27 Flaps:5 at 169 Knots
09:28 Flaps:4 at 223 Knots
09:28 Flaps:3 at 231 Knots
09:29 Flaps:2 at 238 Knots
09:29 Flaps:0 at 239 Knots
09:42 Wind:134º@026 Knots Heading: 191º Ground Speed: 432 Knots Altitude 30862 ft
09:42 TOC
09:42 Fuel Weight: 10301 Lb
09:57 Wind:095º@066 Knots Heading: 208º Ground Speed: 484 Knots Altitude 31240 ft
10:01 TOD
10:01 Fuel Weight: 8470 Lb
10:12 Wind:195º@035 Knots Heading: 223º Ground Speed: 338 Knots Altitude 15252 ft
10:22 Flaps:1 at 290 Knots
10:22 Flaps:2 at 287 Knots
10:22 Flaps:3 at 288 Knots
10:25 Flaps:4 at 201 Knots
10:25 Flaps:5 at 191 Knots
10:26 Flaps:6 at 173 Knots
10:26 Gear Down: 173 Knots
10:27 Wind:210º@006 Knots Heading: 260º Ground Speed: 171 Knots Altitude 2326 ft
10:27 Flaps:7 at 164 Knots
10:27 Flaps:8 at 155 Knots
10:31 TouchDown:Rate -215 ft/min Speed: 124 Knots
10:31 VATSIM:LEBL 031000Z 22006KT 9999 FEW015 19/15 Q1020 NOSIG
10:31 Land
10:31 Wind:217º@006 Knots
10:31 Heading: 244º
10:31 Flight Duration: 01:04
10:31 Landing Weight: 142845 Lbs
10:31 POS N41º 17´ 53´´ E002º 04´ 54´´
10:34 Parking brakes on
10:34 Block to Block Duration: 01:22
10:34 Final Fuel: 6563 Lbls
10:34 Spent Fuel: 8106 Lbls
10:34 Flight Length: 336 NM
10:34 TOD Land Length: 104 NM

Exportar CSV

Powered by Drupal - Modified by Danger4k